This is the latest recevied weather packets stored in our database for station/object WB4ROX. If no packets are shown the sender has not sent any weather packets the latest 10 day(s).
| Time | Temp. | Humidity | Pressure | Rain* | Wind** | Luminosity | Snow |
|---|---|---|---|---|---|---|---|
| 1777836517 | 8.89° C | 37% | 1019.1 hPa | 0 mm | - | 745 W/m² | - |
| 1777836213 | 9.44° C | 34% | 1019.1 hPa | 0 mm | - | 756 W/m² | - |
| 1777835910 | 9.44° C | 33% | 1019.2 hPa | 0 mm | - | 765 W/m² | - |
| 1777835607 | 8.89° C | 34% | 1019.1 hPa | 0 mm | - | 776 W/m² | - |
| 1777835304 | 8.89° C | 35% | 1019.2 hPa | 0 mm | - | 786 W/m² | - |
| 1777835001 | 8.89° C | 34% | 1019.1 hPa | 0 mm | - | 794 W/m² | - |
| 1777834698 | 9.44° C | 32% | 1019.1 hPa | 0 mm | - | 803 W/m² | - |
| 1777834394 | 8.89° C | 35% | 1019.4 hPa | 0 mm | - | 808 W/m² | - |
| 1777834093 | 8.89° C | 32% | 1019.3 hPa | 0 mm | - | 819 W/m² | - |
| 1777833790 | 8.33° C | 33% | 1019.2 hPa | 0 mm | - | 824 W/m² | - |
| 1777833486 | 8.89° C | 32% | 1019.4 hPa | 0 mm | - | 833 W/m² | - |
| 1777833183 | 8.33° C | 34% | 1019.3 hPa | 0 mm | - | 840 W/m² | - |
| 1777832880 | 8.33° C | 35% | 1019.1 hPa | 0 mm | - | 840 W/m² | - |
| 1777832580 | 8.33° C | 33% | 1019.3 hPa | 0 mm | - | 841 W/m² | - |
| 1777832276 | 7.78° C | 34% | 1019.6 hPa | 0 mm | - | 845 W/m² | - |
| 1777831973 | 8.33° C | 33% | 1019.4 hPa | 0 mm | - | 850 W/m² | - |
| 1777831669 | 7.78° C | 33% | 1019.6 hPa | 0 mm | - | 856 W/m² | - |
| 1777831368 | 8.33° C | 33% | 1019.7 hPa | 0 mm | - | 858 W/m² | - |
| 1777831064 | 7.78° C | 35% | 1019.8 hPa | 0 mm | - | 863 W/m² | - |
| 1777830762 | 7.22° C | 36% | 1019.7 hPa | 0 mm | - | 864 W/m² | - |
| 1777830457 | 7.22° C | 35% | 1019.4 hPa | 0 mm | - | 865 W/m² | - |
| 1777830156 | 7.22° C | 36% | 1019.7 hPa | 0 mm | - | 866 W/m² | - |
| 1777829856 | 6.67° C | 37% | 1019.6 hPa | 0 mm | - | 868 W/m² | - |
| 1777829552 | 6.67° C | 35% | 1019.6 hPa | 0 mm | - | 868 W/m² | - |
| 1777829249 | 7.22° C | 35% | 1019.7 hPa | 0 mm | - | 869 W/m² | - |
* Rain latest hour (hover to see other rain measurements)
** Current wind speed in m/s (hover to see current wind gust speed)